Time;durP1;ratioP1;P1;durP2;ratioP2;P2;SDS_P1;SDS_P2;PMS_P1;PMS_P2;Temp;Humidity;BMP_temperature;BMP_pressure;BME280_temperature;BME280_humidity;BME280_pressure;Samples;Min_cycle;Max_cycle;Signal;HPM_P1;HPM_P2
2021/12/09 05:30:25;;;;;;;;;;;1.10;99.90;;;;;;5783655;23;20054;-87
2021/12/09 05:33:12;;;;;;;32.75;15.00;;;1.10;99.90;;;;;;4866273;29;20072;-85
2021/12/09 05:36:06;;;;;;;38.08;14.85;;;1.10;99.90;;;;;;4859303;29;20049;-86
2021/12/09 05:38:54;;;;;;;39.03;14.55;;;1.20;99.90;;;;;;4884173;29;20055;-87
2021/12/09 05:41:41;;;;;;;39.10;13.15;;;1.20;99.90;;;;;;4871170;29;20037;-87
2021/12/09 05:44:30;;;;;;;26.80;11.32;;;1.20;99.90;;;;;;4899547;29;20049;-86
2021/12/09 05:47:19;;;;;;;28.40;11.27;;;1.20;99.90;;;;;;4899538;29;20048;-86
2021/12/09 05:51:14;;;;;;;23.88;10.73;;;1.20;99.90;;;;;;4900183;29;20136;-86
2021/12/09 05:54:49;;;;;;;34.15;10.30;;;1.20;99.90;;;;;;4840509;29;20041;-88
2021/12/09 06:32:16;;;;;;;27.48;12.63;;;1.20;99.90;;;;;;5914755;23;21200;31
2021/12/09 07:10:05;;;;;;;26.08;9.88;;;1.20;99.90;;;;;;4873601;29;20029;-85
2021/12/09 07:13:51;;;;;;;16.58;9.45;;;1.20;99.90;;;;;;4877141;29;20076;-87
2021/12/09 07:33:33;;;;;;;25.42;12.68;;;1.10;99.90;;;;;;4832934;29;20061;-86
2021/12/09 07:36:24;;;;;;;31.05;12.43;;;1.10;99.90;;;;;;4823771;29;20096;-85
2021/12/09 07:39:17;;;;;;;38.85;14.07;;;1.10;99.90;;;;;;4836832;29;20084;-86
2021/12/09 07:42:05;;;;;;;27.98;13.73;;;1.20;99.90;;;;;;4835501;29;20062;-87
2021/12/09 07:44:53;;;;;;;29.00;13.77;;;1.20;99.90;;;;;;4829664;29;20421;-85
2021/12/09 07:47:44;;;;;;;22.75;13.05;;;1.20;99.90;;;;;;4828970;29;20068;-87
2021/12/09 07:50:48;;;;;;;30.77;13.18;;;1.20;99.90;;;;;;4830389;29;20375;-86
2021/12/09 07:53:37;;;;;;;25.83;15.27;;;1.20;99.90;;;;;;4837997;29;20072;-85
2021/12/09 07:56:24;;;;;;;31.05;14.35;;;1.30;99.90;;;;;;4852090;29;20327;-85
2021/12/09 07:59:12;;;;;;;30.13;14.10;;;1.30;99.90;;;;;;4838558;29;20042;-85
2021/12/09 08:02:02;;;;;;;31.55;14.25;;;1.30;99.90;;;;;;4863480;29;20053;-83
2021/12/09 08:04:52;;;;;;;36.63;13.50;;;1.40;99.90;;;;;;4866695;29;20053;-84
2021/12/09 08:07:43;;;;;;;27.70;12.52;;;1.40;99.90;;;;;;4863430;29;20046;-82
2021/12/09 08:10:35;;;;;;;31.17;13.25;;;1.40;99.90;;;;;;4859677;29;20438;-83
2021/12/09 08:13:23;;;;;;;28.23;12.55;;;1.40;99.90;;;;;;4862396;29;20104;-82
2021/12/09 08:16:11;;;;;;;35.55;13.25;;;1.50;99.90;;;;;;4850399;29;20063;-83
2021/12/09 08:18:58;;;;;;;24.65;12.98;;;1.50;99.90;;;;;;4864984;29;20053;-83
2021/12/09 08:21:45;;;;;;;29.30;13.40;;;1.50;99.90;;;;;;4833061;29;20123;-83
2021/12/09 08:24:33;;;;;;;24.80;11.25;;;1.50;99.90;;;;;;4866418;29;20060;-82
2021/12/09 08:27:22;;;;;;;25.17;10.23;;;1.60;99.90;;;;;;4853150;29;20371;-81
2021/12/09 08:30:16;;;;;;;20.55;10.13;;;1.60;99.90;;;;;;4874146;29;20070;-84
2021/12/09 08:33:07;;;;;;;21.63;11.85;;;1.60;99.90;;;;;;4860437;29;20045;-82
2021/12/09 08:35:57;;;;;;;25.30;12.50;;;1.60;99.90;;;;;;4851940;29;20059;-86
2021/12/09 08:38:46;;;;;;;19.95;12.00;;;1.70;99.90;;;;;;4864085;29;20414;-85
2021/12/09 08:41:39;;;;;;;24.00;11.88;;;1.70;99.90;;;;;;4815968;29;20057;-84
2021/12/09 08:44:27;;;;;;;22.00;10.88;;;1.80;99.90;;;;;;4847259;29;20053;-84
2021/12/09 08:47:14;;;;;;;29.05;11.55;;;1.90;99.90;;;;;;4845351;29;20042;-86
2021/12/09 08:50:14;;;;;;;18.88;10.60;;;1.90;99.90;;;;;;4852849;29;20064;-85
2021/12/09 08:53:07;;;;;;;16.60;9.80;;;1.90;99.90;;;;;;4846851;29;20277;-87
2021/12/09 08:55:55;;;;;;;18.83;9.43;;;2.00;99.90;;;;;;4843932;29;20098;-86
2021/12/09 08:58:45;;;;;;;16.20;9.07;;;2.10;99.90;;;;;;4853929;29;20456;-86
2021/12/09 09:01:34;;;;;;;23.00;9.48;;;2.10;99.90;;;;;;4845111;29;20140;-86
2021/12/09 09:04:22;;;;;;;15.55;8.82;;;2.20;99.90;;;;;;4844534;29;20049;-85
2021/12/09 09:07:09;;;;;;;15.82;7.88;;;2.40;99.90;;;;;;4842497;29;20060;-88
2021/12/09 09:09:56;;;;;;;14.63;7.75;;;2.50;99.90;;;;;;4845980;29;20050;-86
2021/12/09 09:12:55;;;;;;;20.33;7.85;;;2.60;99.90;;;;;;4846255;29;20068;-86
2021/12/09 09:15:58;;;;;;;15.05;7.60;;;2.60;99.90;;;;;;4854688;29;20061;-86
2021/12/09 09:18:53;;;;;;;20.48;8.07;;;2.70;99.90;;;;;;4850445;29;20049;-86
2021/12/09 09:21:42;;;;;;;15.38;8.32;;;2.70;99.90;;;;;;4835770;29;20046;-86
2021/12/09 09:24:52;;;;;;;15.82;7.90;;;2.80;99.90;;;;;;4843339;29;20080;-87
2021/12/09 09:27:45;;;;;;;14.82;6.60;;;2.90;99.90;;;;;;4845481;29;20480;-86
2021/12/09 09:30:47;;;;;;;12.95;6.85;;;2.90;99.90;;;;;;4842662;29;20060;-85
2021/12/09 09:34:07;;;;;;;7.15;5.13;;;3.00;99.90;;;;;;4845658;29;20053;-86
2021/12/09 09:36:59;;;;;;;12.57;6.50;;;3.20;99.90;;;;;;4843298;29;20049;-86
2021/12/09 09:40:15;;;;;;;12.18;6.65;;;3.30;99.90;;;;;;4824925;29;20403;-85
2021/12/09 09:43:27;;;;;;;9.57;6.03;;;3.40;99.90;;;;;;4875799;29;20438;-87
2021/12/09 09:46:28;;;;;;;10.07;5.57;;;3.40;99.90;;;;;;4862214;29;20069;-87
2021/12/09 09:49:16;;;;;;;11.90;5.65;;;3.50;99.90;;;;;;4872865;29;20056;-87
2021/12/09 09:52:25;;;;;;;;;;;;;;;;;;;;;
2021/12/09 09:55:20;;;;;;;11.55;5.78;;;3.30;99.90;;;;;;4871325;29;20108;-87
2021/12/09 09:58:19;;;;;;;11.02;5.15;;;3.40;99.90;;;;;;4859920;29;20223;-86
2021/12/09 10:01:07;;;;;;;13.65;5.63;;;3.30;99.90;;;;;;4844051;29;20051;-86
2021/12/09 10:04:27;;;;;;;8.85;5.43;;;3.30;99.90;;;;;;4853651;29;20064;-87
2021/12/09 10:07:11;;;;;;;11.45;5.40;;;3.30;99.90;;;;;;4878205;29;20502;-87
2021/12/09 10:10:03;;;;;;;13.95;6.18;;;3.30;99.90;;;;;;4858020;29;20109;-88
2021/12/09 10:13:23;;;;;;;;;;;;;;;;;;;;;
2021/12/09 10:16:21;;;;;;;9.50;5.15;;;3.40;99.90;;;;;;4879473;29;20053;-85
2021/12/09 10:19:22;;;;;;;8.98;5.25;;;3.40;99.90;;;;;;4865944;29;20068;-85
2021/12/09 10:22:20;;;;;;;10.77;5.07;;;3.40;99.90;;;;;;4876873;29;20518;-86
2021/12/09 10:25:22;;;;;;;11.25;5.47;;;3.40;99.90;;;;;;4879342;29;20078;-86
2021/12/09 10:28:25;;;;;;;13.40;5.15;;;3.40;99.90;;;;;;4879182;29;20055;-86
2021/12/09 10:31:21;;;;;;;9.88;5.05;;;3.40;99.90;;;;;;4859426;29;20045;-89
2021/12/09 10:37:18;;;;;;;9.63;5.32;;;3.30;99.90;;;;;;4881575;29;20439;-86
2021/12/09 10:40:30;;;;;;;13.98;6.70;;;3.30;99.90;;;;;;4873991;29;20057;-86
2021/12/09 10:43:22;;;;;;;9.15;5.65;;;3.40;99.90;;;;;;4867163;29;20447;-85
2021/12/09 10:46:12;;;;;;;11.35;6.10;;;3.30;99.90;;;;;;4850990;29;20045;-86
2021/12/09 10:49:13;;;;;;;11.20;6.32;;;3.30;99.90;;;;;;4853867;29;20074;-87
2021/12/09 10:52:42;;;;;;;13.25;5.70;;;3.20;99.90;;;;;;4855090;29;20122;-89
2021/12/09 10:55:37;;;;;;;10.90;6.07;;;3.30;99.90;;;;;;4870338;29;20105;-89
2021/12/09 10:58:32;;;;;;;10.63;5.53;;;3.30;99.90;;;;;;4868288;29;20041;-86
2021/12/09 11:01:35;;;;;;;12.27;5.63;;;3.40;99.90;;;;;;4858557;29;20060;-90
2021/12/09 11:04:25;;;;;;;13.77;4.88;;;3.40;99.90;;;;;;4850802;29;20076;-88
2021/12/09 11:07:29;;;;;;;9.38;4.57;;;3.50;99.90;;;;;;4866250;29;20053;-87
2021/12/09 11:10:22;;;;;;;12.43;4.47;;;3.60;99.90;;;;;;4865591;29;20451;-88
2021/12/09 11:13:10;;;;;;;10.65;3.85;;;3.60;99.90;;;;;;4867202;29;20189;-89
2021/12/09 11:17:15;;;;;;;;;;;;;;;;;;;;;
2021/12/09 11:21:27;;;;;;;6.53;3.53;;;3.60;99.90;;;;;;4879664;29;20048;-87
2021/12/09 11:24:54;;;;;;;8.68;3.85;;;3.80;99.90;;;;;;4808719;29;20125;-89
2021/12/09 11:28:03;;;;;;;8.10;4.15;;;3.90;99.90;;;;;;4840305;29;20060;-86
2021/12/09 11:31:07;;;;;;;8.75;3.90;;;3.90;99.90;;;;;;4876857;29;20423;-91
2021/12/09 11:34:10;;;;;;;9.82;3.58;;;4.10;99.90;;;;;;4852620;29;20052;-88
2021/12/09 11:40:48;;;;;;;6.35;2.95;;;4.70;99.90;;;;;;4862222;29;20106;-87
2021/12/09 11:44:08;;;;;;;4.78;2.83;;;4.70;99.90;;;;;;4857246;29;20044;-88
2021/12/09 11:47:09;;;;;;;;;;;5.10;99.90;;;;;;4842466;29;20076;-86
2021/12/09 11:50:30;;;;;;;7.18;2.45;;;5.90;99.90;;;;;;4872071;29;20342;-88
2021/12/09 11:58:25;;;;;;;6.18;2.10;;;9.30;99.90;;;;;;4877142;29;20059;-89
2021/12/09 12:21:25;;;;;;;6.47;2.10;;;9.20;99.90;;;;;;4792796;29;20051;-89
2021/12/09 12:25:12;;;;;;;5.70;2.20;;;9.40;99.90;;;;;;4793297;29;20054;-89
2021/12/09 12:33:01;;;;;;;8.80;2.08;;;10.20;99.90;;;;;;4769242;29;20579;-89
2021/12/09 12:36:03;;;;;;;6.03;2.20;;;10.30;98.50;;;;;;4842405;29;20131;-88
2021/12/09 12:39:58;;;;;;;4.32;2.10;;;10.60;96.40;;;;;;5157503;23;20053;-89
2021/12/09 12:43:43;;;;;;;8.68;2.53;;;9.20;97.30;;;;;;4880957;29;20114;-89
2021/12/09 12:46:52;;;;;;;7.05;2.53;;;8.70;99.90;;;;;;4859437;29;20045;-90
2021/12/09 12:50:12;;;;;;;9.73;2.92;;;8.30;99.90;;;;;;4873752;29;20056;-88
2021/12/09 12:53:41;;;;;;;8.73;2.67;;;7.00;99.90;;;;;;4868078;29;20075;-89
2021/12/09 12:56:55;;;;;;;9.00;2.95;;;6.50;99.90;;;;;;4863197;29;20063;-86
2021/12/09 13:00:28;;;;;;;11.32;2.72;;;7.80;99.90;;;;;;4869696;29;20053;-87
2021/12/09 13:03:40;;;;;;;8.32;2.80;;;8.80;99.90;;;;;;4867979;29;20096;-87
2021/12/09 13:06:45;;;;;;;10.48;2.30;;;9.30;99.90;;;;;;4863439;29;20057;-86
2021/12/09 13:09:39;;;;;;;9.20;2.72;;;9.10;98.20;;;;;;4859975;29;20045;-86
2021/12/09 13:12:54;;;;;;;9.57;2.25;;;7.90;99.90;;;;;;4859158;29;20049;-87
2021/12/09 13:57:31;;;;;;;15.50;3.28;;;6.10;99.90;;;;;;5802678;23;20028;-85
2021/12/09 14:09:09;;;;;;;10.52;3.00;;;5.30;99.90;;;;;;5862986;23;20871;-86
2021/12/09 14:12:07;;;;;;;18.20;3.55;;;5.00;99.90;;;;;;4874122;29;20046;-87
2021/12/09 14:15:06;;;;;;;12.85;3.00;;;4.70;99.90;;;;;;4875475;29;20077;-85
2021/12/09 14:18:06;;;;;;;12.52;3.28;;;4.50;99.90;;;;;;4855440;29;20054;-86
2021/12/09 14:20:57;;;;;;;14.18;3.30;;;4.30;99.90;;;;;;4853511;29;20139;-87
2021/12/09 14:23:45;;;;;;;9.43;3.28;;;4.10;99.90;;;;;;4836623;29;20050;-86
2021/12/09 14:26:42;;;;;;;11.90;3.85;;;3.90;99.90;;;;;;4834998;29;20061;-87
2021/12/09 14:29:31;;;;;;;11.57;3.25;;;3.70;99.90;;;;;;4850637;29;20061;-86
2021/12/09 14:32:21;;;;;;;11.38;3.25;;;3.70;99.90;;;;;;4845475;29;20049;-87
2021/12/09 14:35:31;;;;;;;9.90;3.42;;;3.70;99.90;;;;;;4844069;29;20125;-88
2021/12/09 14:38:43;;;;;;;13.02;3.60;;;3.60;99.90;;;;;;4836426;29;20095;-85
2021/12/09 14:41:41;;;;;;;15.77;3.72;;;3.50;99.90;;;;;;4824757;29;20050;-85
2021/12/09 14:44:29;;;;;;;11.38;3.03;;;3.40;99.90;;;;;;4839787;29;20050;-88
2021/12/09 14:48:12;;;;;;;12.60;3.33;;;3.40;99.90;;;;;;4824591;29;20114;-86
2021/12/09 14:51:18;;;;;;;11.00;3.22;;;3.30;99.90;;;;;;4816099;29;20151;-86
2021/12/09 14:54:26;;;;;;;13.65;2.90;;;3.30;99.90;;;;;;4835320;29;20122;-87
2021/12/09 14:57:25;;;;;;;16.27;4.05;;;3.30;99.90;;;;;;4859665;29;20157;-86
2021/12/09 15:00:43;;;;;;;13.70;4.47;;;3.20;99.90;;;;;;4846091;29;20151;-85
2021/12/09 15:03:38;;;;;;;11.98;3.97;;;3.10;99.90;;;;;;4838275;29;20069;-88
2021/12/09 15:06:54;;;;;;;8.55;3.35;;;3.10;99.90;;;;;;4830515;29;20061;-84
2021/12/09 15:09:47;;;;;;;10.90;3.85;;;3.00;99.90;;;;;;4834127;29;20133;-85
2021/12/09 15:12:41;;;;;;;12.73;3.72;;;2.90;99.90;;;;;;4849848;29;20046;-87
2021/12/09 15:15:37;;;;;;;9.18;3.53;;;2.90;99.90;;;;;;4835813;29;20065;-86
2021/12/09 15:18:29;;;;;;;7.88;3.42;;;2.90;99.90;;;;;;4834744;29;20050;-83
2021/12/09 15:21:43;;;;;;;22.52;4.18;;;2.80;99.90;;;;;;4842781;29;20050;-86
2021/12/09 15:24:31;;;;;;;20.63;4.53;;;2.80;99.90;;;;;;4836458;29;20042;-86
2021/12/09 15:27:20;;;;;;;10.38;4.13;;;2.80;99.90;;;;;;4830182;29;20046;-86
2021/12/09 15:30:57;;;;;;;8.98;3.50;;;2.80;99.90;;;;;;4840067;29;20404;-87
2021/12/09 15:34:13;;;;;;;10.77;3.42;;;2.80;99.90;;;;;;4837977;29;20376;-87
2021/12/09 15:37:22;;;;;;;14.65;4.53;;;2.80;99.90;;;;;;4844067;29;20156;-85
2021/12/09 15:40:24;;;;;;;12.65;4.15;;;2.80;99.90;;;;;;4839758;29;20162;-86
2021/12/09 15:43:23;;;;;;;12.98;4.00;;;2.80;99.90;;;;;;4851009;29;20103;-85
2021/12/09 15:46:38;;;;;;;;;;;;;;;;;;;;;
2021/12/09 15:50:12;;;;;;;;;;;;;;;;;;;;;
2021/12/09 15:53:05;;;;;;;16.48;3.65;;;2.70;99.90;;;;;;4841679;29;20065;-89
2021/12/09 15:56:02;;;;;;;13.85;3.90;;;2.70;99.90;;;;;;4814843;29;20058;-86
2021/12/09 15:59:01;;;;;;;11.32;4.65;;;2.70;99.90;;;;;;4842442;29;20054;-87
2021/12/09 16:01:56;;;;;;;13.45;4.22;;;2.60;99.90;;;;;;4839900;29;20161;-88
2021/12/09 16:04:50;;;;;;;16.13;4.13;;;2.60;99.90;;;;;;4841441;29;20454;-86
2021/12/09 16:07:38;;;;;;;14.77;3.75;;;2.60;99.90;;;;;;4845010;29;20132;-88
2021/12/09 16:10:29;;;;;;;16.42;4.82;;;2.50;99.90;;;;;;4846627;29;20321;-88
2021/12/09 16:13:17;;;;;;;10.75;3.92;;;2.50;99.90;;;;;;4842666;29;20050;-89
2021/12/09 16:16:17;;;;;;;15.23;4.38;;;2.50;99.90;;;;;;4842590;29;20121;-87
2021/12/09 16:19:32;;;;;;;;;;;;;;;;;;;;;
2021/12/09 16:25:21;;;;;;;12.65;4.47;;;2.50;99.90;;;;;;4842077;29;20512;-87
2021/12/09 16:28:11;;;;;;;14.15;4.43;;;2.60;99.90;;;;;;4835364;29;20046;-87
2021/12/09 16:31:07;;;;;;;14.52;3.83;;;2.60;99.90;;;;;;4821034;29;20038;-87
2021/12/09 16:33:59;;;;;;;17.48;4.68;;;2.60;99.90;;;;;;4841429;29;20060;-87
2021/12/09 16:36:48;;;;;;;15.20;3.55;;;2.60;99.90;;;;;;4851110;29;20033;-87
2021/12/09 16:39:43;;;;;;;16.25;3.88;;;2.60;99.90;;;;;;4821264;29;20102;-88
2021/12/09 16:42:53;;;;;;;12.75;3.35;;;2.60;99.90;;;;;;4869026;29;20084;-85
2021/12/09 16:45:43;;;;;;;16.00;4.25;;;2.60;99.90;;;;;;4857483;29;20113;-87
2021/12/09 16:48:39;;;;;;;11.50;4.18;;;2.60;99.90;;;;;;4846175;29;20054;-86
2021/12/09 16:51:51;;;;;;;12.45;3.80;;;2.60;99.90;;;;;;4862581;29;20034;-88
2021/12/09 16:54:44;;;;;;;21.25;5.03;;;2.60;99.90;;;;;;4849418;29;20109;-88
2021/12/09 16:57:45;;;;;;;17.65;4.32;;;2.60;99.90;;;;;;4847238;29;20075;-88
2021/12/09 17:04:05;;;;;;;11.00;3.90;;;2.70;99.90;;;;;;4842462;29;20053;-89
2021/12/09 17:07:21;;;;;;;26.23;5.40;;;2.70;99.90;;;;;;4795747;29;20050;-86
2021/12/09 17:10:12;;;;;;;14.77;4.10;;;2.70;99.90;;;;;;4800670;29;20142;-86
2021/12/09 17:13:03;;;;;;;17.95;3.70;;;2.70;99.90;;;;;;4820758;29;20042;-85
2021/12/09 17:15:55;;;;;;;10.77;3.67;;;2.70;99.90;;;;;;4816253;29;20082;-86
2021/12/09 17:18:44;;;;;;;14.93;4.32;;;2.70;99.90;;;;;;4804556;29;20066;-86
2021/12/09 17:21:33;;;;;;;15.77;4.68;;;2.70;99.90;;;;;;4794308;29;20140;-86
2021/12/09 17:24:24;;;;;;;11.32;3.80;;;2.70;99.90;;;;;;4808957;29;20046;-85
2021/12/09 17:27:17;;;;;;;15.93;5.20;;;2.70;99.90;;;;;;4809618;29;20062;-85
2021/12/09 17:30:10;;;;;;;14.82;5.60;;;2.70;99.90;;;;;;4816420;29;20203;-85
2021/12/09 17:33:22;;;;;;;14.73;5.07;;;2.70;99.90;;;;;;4811691;29;20053;-88
2021/12/09 17:36:10;;;;;;;19.42;5.20;;;2.70;99.90;;;;;;4807157;29;20046;-88
2021/12/09 17:39:05;;;;;;;17.38;4.38;;;2.60;99.90;;;;;;4834469;29;20070;-89
2021/12/09 17:41:57;;;;;;;16.85;4.82;;;2.60;99.90;;;;;;4845681;29;20054;-90
2021/12/09 17:45:00;;;;;;;16.50;4.15;;;2.60;99.90;;;;;;4837629;29;20045;-87
2021/12/09 17:48:15;;;;;;;15.60;4.50;;;2.50;99.90;;;;;;4836633;29;20410;-88
2021/12/09 17:51:15;;;;;;;17.15;5.00;;;2.50;99.90;;;;;;4843673;29;20046;-87
2021/12/09 17:54:21;;;;;;;17.20;5.32;;;2.50;99.90;;;;;;4842469;29;20102;-88
2021/12/09 17:57:24;;;;;;;;;;;;;;;;;;;;;
2021/12/09 18:00:27;;;;;;;22.80;5.55;;;2.50;99.90;;;;;;4856978;29;20057;-85
2021/12/09 18:03:26;;;;;;;14.70;5.00;;;2.40;99.90;;;;;;4857926;29;20050;-86
2021/12/09 18:06:14;;;;;;;19.23;4.95;;;2.40;99.90;;;;;;4856973;29;20048;-87
2021/12/09 18:09:03;;;;;;;20.45;5.40;;;2.40;99.90;;;;;;4840304;29;20108;-85
2021/12/09 18:11:52;;;;;;;18.15;5.80;;;2.30;99.90;;;;;;4858255;29;20046;-85
2021/12/09 18:14:44;;;;;;;19.73;6.05;;;2.20;99.90;;;;;;4888854;29;20065;-86
2021/12/09 18:17:37;;;;;;;15.10;5.95;;;2.20;99.90;;;;;;4901073;29;20100;-85
2021/12/09 18:20:29;;;;;;;23.15;6.78;;;2.10;99.90;;;;;;4893676;29;20088;-85
2021/12/09 18:23:23;;;;;;;21.40;5.85;;;2.00;99.90;;;;;;4879793;29;20046;-86
2021/12/09 18:26:13;;;;;;;21.23;6.15;;;2.00;99.90;;;;;;4880946;29;20087;-84
2021/12/09 18:29:04;;;;;;;18.98;6.30;;;2.00;99.90;;;;;;4876222;29;20046;-88
2021/12/09 18:31:51;;;;;;;16.40;5.55;;;2.00;99.90;;;;;;4853835;29;20054;-85
2021/12/09 18:34:40;;;;;;;20.83;5.57;;;1.90;99.90;;;;;;4870355;29;20054;-89
2021/12/09 18:37:47;;;;;;;15.20;5.20;;;1.90;99.90;;;;;;4858474;29;20057;-87
2021/12/09 18:40:41;;;;;;;20.80;6.45;;;1.90;99.90;;;;;;4849998;29;20054;-86
2021/12/09 18:43:39;;;;;;;17.80;6.13;;;1.90;99.90;;;;;;4857843;29;20129;-85
2021/12/09 18:46:41;;;;;;;21.02;5.72;;;1.90;99.90;;;;;;4864966;29;20394;-86
2021/12/09 18:49:31;;;;;;;22.73;8.15;;;1.90;99.90;;;;;;4862499;29;20041;-88
2021/12/09 18:52:29;;;;;;;25.13;7.75;;;1.90;99.90;;;;;;4836578;29;20046;-88
2021/12/09 18:55:17;;;;;;;23.13;5.88;;;1.90;99.90;;;;;;4872162;29;20056;-86
2021/12/09 18:58:13;;;;;;;21.05;6.47;;;1.90;99.90;;;;;;4854207;29;20139;-88
2021/12/09 19:01:04;;;;;;;22.58;6.40;;;1.90;99.90;;;;;;4876327;29;20049;-87
2021/12/09 19:03:52;;;;;;;15.27;5.53;;;1.90;99.90;;;;;;4850806;29;20436;-87
2021/12/09 19:06:58;;;;;;;17.90;5.72;;;2.00;99.90;;;;;;4865156;29;20691;-88
2021/12/09 19:10:21;;;;;;;22.67;7.85;;;2.00;99.90;;;;;;4870312;29;20093;-87
2021/12/09 19:13:21;;;;;;;;;;;;;;;;;;;;;
2021/12/09 19:17:00;;;;;;;16.42;6.18;;;2.00;99.90;;;;;;4835038;29;20084;-87
2021/12/09 19:20:37;;;;;;;20.00;5.72;;;1.90;99.90;;;;;;4848610;29;20045;-90
2021/12/09 19:23:30;;;;;;;20.95;6.38;;;1.90;99.90;;;;;;4875040;29;20124;-87
2021/12/09 19:26:42;;;;;;;16.60;6.53;;;1.90;99.90;;;;;;4884449;29;20062;-87
2021/12/09 19:29:30;;;;;;;26.80;7.80;;;1.90;99.90;;;;;;4865807;29;20048;-87
2021/12/09 19:32:19;;;;;;;18.45;6.75;;;1.90;99.90;;;;;;4883326;29;20053;-89
2021/12/09 19:35:12;;;;;;;20.85;6.70;;;1.90;99.90;;;;;;4845332;29;20129;-89
2021/12/09 19:38:02;;;;;;;18.80;6.05;;;1.90;99.90;;;;;;4871630;29;20052;-87
2021/12/09 19:40:51;;;;;;;18.20;6.93;;;2.00;99.90;;;;;;4873947;29;20173;-89
2021/12/09 19:43:40;;;;;;;14.32;5.43;;;2.00;99.90;;;;;;4860365;29;20387;-86
2021/12/09 19:46:27;;;;;;;19.05;5.43;;;2.00;99.90;;;;;;4843499;29;20181;-85
2021/12/09 19:49:15;;;;;;;15.85;6.57;;;2.00;99.90;;;;;;4853550;29;20144;-83
2021/12/09 19:52:04;;;;;;;21.08;6.20;;;1.90;99.90;;;;;;4871400;29;20060;-85
2021/12/09 19:54:57;;;;;;;18.30;7.20;;;2.00;99.90;;;;;;4855039;29;20509;-87
2021/12/09 19:57:50;;;;;;;19.92;5.57;;;2.00;99.90;;;;;;4866417;29;20048;-88
2021/12/09 20:00:42;;;;;;;22.60;5.82;;;2.00;99.90;;;;;;4893579;29;20056;-90
2021/12/09 20:03:32;;;;;;;19.55;4.70;;;2.00;99.90;;;;;;4889158;29;20216;-87
2021/12/09 20:06:23;;;;;;;18.75;4.60;;;2.00;99.90;;;;;;4861391;29;20145;-88
2021/12/09 20:09:25;;;;;;;22.48;5.97;;;2.00;99.90;;;;;;4869315;29;20439;-85
2021/12/09 20:12:26;;;;;;;16.70;5.22;;;2.00;99.90;;;;;;4859171;29;20041;-86
2021/12/09 20:15:29;;;;;;;17.05;5.13;;;1.90;99.90;;;;;;4856138;29;20064;-90
2021/12/09 20:18:39;;;;;;;11.48;4.10;;;2.00;99.90;;;;;;4861641;29;20064;-87
2021/12/09 20:22:04;;;;;;;14.30;4.55;;;2.00;99.90;;;;;;4880185;29;20074;-88
2021/12/09 20:25:07;;;;;;;20.45;4.35;;;2.00;99.90;;;;;;4878777;29;20048;-91
2021/12/09 20:28:10;;;;;;;19.02;5.20;;;2.00;99.90;;;;;;4871716;29;20136;-88
2021/12/09 20:31:10;;;;;;;13.18;4.95;;;2.00;99.90;;;;;;4862252;29;20037;-88
2021/12/09 20:34:07;;;;;;;19.08;4.80;;;2.00;99.90;;;;;;4865936;29;20045;-89
2021/12/09 20:37:04;;;;;;;20.65;5.10;;;2.00;99.90;;;;;;4880294;29;20052;-87
2021/12/09 20:39:52;;;;;;;14.20;4.43;;;2.00;99.90;;;;;;4865381;29;20057;-87
2021/12/09 20:42:46;;;;;;;14.55;4.80;;;2.00;99.90;;;;;;4840144;29;20102;-84
2021/12/09 20:45:35;;;;;;;19.70;8.00;;;2.00;99.90;;;;;;4864700;29;20184;-87
2021/12/09 20:48:31;;;;;;;14.00;6.00;;;2.00;99.90;;;;;;4878112;29;20083;-87
2021/12/09 20:51:23;;;;;;;16.38;4.97;;;2.00;99.90;;;;;;4865990;29;20084;-87
2021/12/09 20:54:29;;;;;;;12.82;6.55;;;2.00;99.90;;;;;;4858668;29;20777;-87
2021/12/09 20:57:20;;;;;;;16.00;5.03;;;2.00;99.90;;;;;;4877695;29;20049;-87
2021/12/09 21:00:21;;;;;;;13.68;5.20;;;1.90;99.90;;;;;;4864580;29;20064;-87
2021/12/09 21:03:17;;;;;;;15.32;4.93;;;1.90;99.90;;;;;;4882295;29;20154;-86
2021/12/09 21:10:27;;;;;;;13.75;4.32;;;1.90;99.90;;;;;;4864295;29;20053;-87
2021/12/09 21:13:41;;;;;;;11.27;4.10;;;1.90;99.90;;;;;;4864092;29;20478;-86
2021/12/09 21:16:34;;;;;;;11.50;4.13;;;1.90;99.90;;;;;;4862022;29;20157;-88
2021/12/09 21:19:31;;;;;;;12.38;5.20;;;1.90;99.90;;;;;;4847331;29;20153;-87
2021/12/09 21:22:20;;;;;;;13.95;5.18;;;1.90;99.90;;;;;;4850064;29;20675;-86
2021/12/09 21:25:12;;;;;;;12.38;4.53;;;1.90;99.90;;;;;;4834673;29;20053;-87
2021/12/09 21:28:02;;;;;;;20.75;5.53;;;1.90;99.90;;;;;;4846559;29;20045;-88
2021/12/09 21:30:58;;;;;;;18.48;5.32;;;1.90;99.90;;;;;;4847476;29;20050;-88
2021/12/09 21:34:19;;;;;;;11.02;4.22;;;1.80;99.90;;;;;;4839906;29;20140;-88
2021/12/09 21:37:08;;;;;;;17.45;4.00;;;1.80;99.90;;;;;;4859659;29;20127;-87
2021/12/09 21:40:05;;;;;;;11.15;4.43;;;1.80;99.90;;;;;;4850041;29;20053;-86
2021/12/09 21:43:04;;;;;;;10.85;3.90;;;1.80;99.90;;;;;;4856876;29;20090;-87
2021/12/09 21:45:57;;;;;;;18.88;4.47;;;1.80;99.90;;;;;;4845494;29;20194;-86
2021/12/09 21:48:46;;;;;;;14.18;3.90;;;1.70;99.90;;;;;;4854292;29;20102;-86
2021/12/09 21:51:49;;;;;;;12.95;3.83;;;1.70;99.90;;;;;;4859205;29;20071;-90
2021/12/09 21:54:37;;;;;;;15.32;3.97;;;1.70;99.90;;;;;;4849651;29;20049;-87
2021/12/09 21:57:24;;;;;;;10.50;4.07;;;1.80;99.90;;;;;;4865018;29;20518;-88
2021/12/09 22:00:18;;;;;;;14.30;3.58;;;1.70;99.90;;;;;;4868478;29;20063;-89
2021/12/09 22:03:11;;;;;;;13.95;4.07;;;1.70;99.90;;;;;;4872729;29;20060;-85
2021/12/09 22:06:00;;;;;;;10.88;4.30;;;1.60;99.90;;;;;;4874810;29;20060;-88
2021/12/09 22:08:52;;;;;;;14.52;4.35;;;1.60;99.90;;;;;;4849247;29;20145;-88
2021/12/09 22:11:42;;;;;;;12.27;4.00;;;1.50;99.90;;;;;;4873272;29;20177;-87
2021/12/09 22:14:30;;;;;;;16.02;3.92;;;1.40;99.90;;;;;;4866593;29;20156;-87
2021/12/09 22:17:20;;;;;;;15.88;4.38;;;1.40;99.90;;;;;;4866612;29;20045;-88
2021/12/09 22:20:09;;;;;;;10.13;4.63;;;1.30;99.90;;;;;;4860487;29;20406;-88
2021/12/09 22:22:58;;;;;;;7.15;4.13;;;1.40;99.90;;;;;;4870765;29;20072;-89
2021/12/09 22:25:46;;;;;;;12.63;3.85;;;1.30;99.90;;;;;;4867705;29;20116;-90
2021/12/09 22:28:35;;;;;;;11.65;4.18;;;1.30;99.90;;;;;;4880974;29;20060;-86
2021/12/09 22:31:28;;;;;;;13.77;4.55;;;1.30;99.90;;;;;;4863999;29;20061;-87
2021/12/09 22:34:16;;;;;;;11.55;3.03;;;1.20;99.90;;;;;;4867829;29;20053;-86
2021/12/09 22:37:06;;;;;;;9.70;3.22;;;1.20;99.90;;;;;;4859626;29;20056;-86
2021/12/09 22:39:54;;;;;;;9.23;3.67;;;1.20;99.90;;;;;;4880999;29;20101;-86
2021/12/09 22:42:42;;;;;;;13.55;4.32;;;1.10;99.90;;;;;;4879025;29;20192;-88
2021/12/09 22:45:30;;;;;;;16.30;3.90;;;1.10;99.90;;;;;;4896539;29;20053;-87
2021/12/09 22:48:20;;;;;;;11.98;4.00;;;1.10;99.90;;;;;;4867871;29;20136;-86
2021/12/09 22:51:11;;;;;;;13.27;4.25;;;1.00;99.90;;;;;;4870512;29;20203;-87
2021/12/09 22:54:05;;;;;;;11.50;3.60;;;0.90;99.90;;;;;;4856959;29;20049;-85
2021/12/09 22:56:54;;;;;;;13.50;4.20;;;0.90;99.90;;;;;;4853440;29;20088;-90
2021/12/09 22:59:42;;;;;;;10.75;4.03;;;0.90;99.90;;;;;;4863578;29;20513;-88
2021/12/09 23:02:33;;;;;;;17.70;4.65;;;0.80;99.90;;;;;;4869890;29;20049;-87
2021/12/09 23:05:20;;;;;;;9.25;3.97;;;0.80;99.90;;;;;;4847533;29;20507;-88
2021/12/09 23:08:10;;;;;;;14.73;4.10;;;0.70;99.90;;;;;;4864098;29;20052;-87
2021/12/09 23:10:58;;;;;;;7.35;3.63;;;0.70;99.90;;;;;;4856687;29;20052;-87
2021/12/09 23:13:46;;;;;;;13.38;4.38;;;0.70;99.90;;;;;;4861534;29;20114;-89
2021/12/09 23:16:37;;;;;;;13.10;5.03;;;0.70;99.90;;;;;;4885209;29;20235;-87
2021/12/09 23:19:25;;;;;;;10.18;3.60;;;0.70;99.90;;;;;;4867451;29;20053;-88
2021/12/09 23:22:13;;;;;;;14.00;4.07;;;0.60;99.90;;;;;;4880049;29;20064;-87
2021/12/09 23:25:00;;;;;;;13.50;4.40;;;0.50;99.90;;;;;;4868591;29;20060;-88
2021/12/09 23:27:50;;;;;;;13.88;4.45;;;0.50;99.90;;;;;;4869927;29;20407;-88
2021/12/09 23:30:42;;;;;;;13.43;4.18;;;0.50;99.90;;;;;;4868113;29;20065;-87
2021/12/09 23:33:35;;;;;;;13.02;4.45;;;0.40;99.90;;;;;;4863729;29;20425;-85
2021/12/09 23:36:24;;;;;;;16.15;4.95;;;0.40;99.90;;;;;;4858741;29;20061;-88
2021/12/09 23:39:13;;;;;;;20.70;4.50;;;0.40;99.90;;;;;;4867036;29;20428;-86
2021/12/09 23:42:02;;;;;;;12.35;4.00;;;0.40;99.90;;;;;;4853643;29;20113;-87
2021/12/09 23:44:50;;;;;;;13.40;3.88;;;0.50;99.90;;;;;;4861161;29;20088;-87
2021/12/09 23:47:38;;;;;;;13.85;4.10;;;0.40;99.90;;;;;;4837878;29;20069;-87
2021/12/09 23:50:26;;;;;;;12.20;4.18;;;0.40;99.90;;;;;;4867434;29;20079;-89
2021/12/09 23:53:15;;;;;;;17.67;4.28;;;0.40;99.90;;;;;;4867305;29;20045;-87
2021/12/09 23:56:04;;;;;;;14.32;4.78;;;0.30;99.90;;;;;;4888140;29;20127;-87
2021/12/09 23:58:52;;;;;;;13.32;4.43;;;0.30;99.90;;;;;;4881997;29;20072;-87
